الصفحة الرئيسية
METAR-TAF:

METAR-TAF

مطار :

Seward, ألاسكا, الولايات المتحدة

دائرة عرض: 60-07N, خط طول: 149-27W, ارتفاع: 9 متر

مراقبة الطقس الحالي

تاريخ ووقت الإصدار 22 دقيقة قبل الساعة 17:53UTC
رياح هادئة
درجة الحرارة -4°درجة مئوية
الرطوبة 80%
ضغط 1015 hPa
الرؤية: 16.1 كم
ملبد بالغيوم على ارتفاع 3700 قدم

METAR: PAWD 041753Z AUTO 00000KT 10SM OVC037 M04/M07 A2998 RMK AO2 SNE45 SLP153 P0000 60000 T10391067 11033 21056 56008 TSNO

زمن: 09:15 (18:15 UTC)


TAF: مفقودة

أرصاد الطقس والتوقعات من أكثر من 4000 مطار (تقارير الطقس للمطار METAR والتنبؤ بالطقس بالمطارTAF).

المحطات المتاحة هي النقط الصفراء والحمراء على الخريطة.

حرك المؤشر فوق النقطة لمعرفة اسم المحطة.

ثم انقر لمعرفة أرصاد وتوقعات الطقس.

لتغيير الخارطة: اضغط على الأزرار الخضراء مع رمز الصليب الأسود للتكبير. على الزر الأخضر مع شرطة للتصغير، أو على الأسهم الخضراء للخرائط المجاورة.


METAR-TAF: